sensor_id;sensor_type;location;lat;lon;timestamp;P1;durP1;ratioP1;P2;durP2;ratioP2
78728;SDS011;68252;44.944;20.218;2024-01-30T00:01:30;85.68;;;38.35;;
78728;SDS011;68252;44.944;20.218;2024-01-30T00:03:56;92.50;;;36.30;;
78728;SDS011;68252;44.944;20.218;2024-01-30T00:06:23;89.68;;;35.75;;
78728;SDS011;68252;44.944;20.218;2024-01-30T00:08:49;83.03;;;33.63;;
78728;SDS011;68252;44.944;20.218;2024-01-30T00:11:15;87.68;;;37.40;;
78728;SDS011;68252;44.944;20.218;2024-01-30T00:13:42;95.03;;;39.30;;
78728;SDS011;68252;44.944;20.218;2024-01-30T00:16:08;89.60;;;38.20;;
78728;SDS011;68252;44.944;20.218;2024-01-30T00:18:34;107.53;;;40.10;;
78728;SDS011;68252;44.944;20.218;2024-01-30T00:21:00;92.88;;;39.72;;
78728;SDS011;68252;44.944;20.218;2024-01-30T00:23:26;107.70;;;42.63;;
78728;SDS011;68252;44.944;20.218;2024-01-30T00:25:52;113.40;;;42.47;;
78728;SDS011;68252;44.944;20.218;2024-01-30T00:28:18;106.05;;;42.78;;
78728;SDS011;68252;44.944;20.218;2024-01-30T00:30:44;100.05;;;42.97;;
78728;SDS011;68252;44.944;20.218;2024-01-30T00:33:10;107.57;;;43.90;;
78728;SDS011;68252;44.944;20.218;2024-01-30T00:35:36;96.43;;;41.22;;
78728;SDS011;68252;44.944;20.218;2024-01-30T00:38:02;88.50;;;38.53;;
78728;SDS011;68252;44.944;20.218;2024-01-30T00:40:29;92.55;;;40.08;;
78728;SDS011;68252;44.944;20.218;2024-01-30T00:42:55;84.75;;;38.08;;
78728;SDS011;68252;44.944;20.218;2024-01-30T00:45:21;89.38;;;39.05;;
78728;SDS011;68252;44.944;20.218;2024-01-30T00:47:47;92.65;;;38.60;;
78728;SDS011;68252;44.944;20.218;2024-01-30T00:50:13;93.13;;;38.72;;
78728;SDS011;68252;44.944;20.218;2024-01-30T00:52:39;95.53;;;38.70;;
78728;SDS011;68252;44.944;20.218;2024-01-30T00:55:06;95.10;;;39.40;;
78728;SDS011;68252;44.944;20.218;2024-01-30T00:57:33;86.78;;;39.15;;
78728;SDS011;68252;44.944;20.218;2024-01-30T00:59:59;82.60;;;38.05;;
78728;SDS011;68252;44.944;20.218;2024-01-30T01:02:25;77.63;;;37.25;;
78728;SDS011;68252;44.944;20.218;2024-01-30T01:04:51;119.70;;;51.97;;
78728;SDS011;68252;44.944;20.218;2024-01-30T01:07:17;109.32;;;47.67;;
78728;SDS011;68252;44.944;20.218;2024-01-30T01:09:43;109.57;;;46.42;;
78728;SDS011;68252;44.944;20.218;2024-01-30T01:12:09;107.25;;;46.60;;
78728;SDS011;68252;44.944;20.218;2024-01-30T01:14:35;100.28;;;45.80;;
78728;SDS011;68252;44.944;20.218;2024-01-30T01:17:01;88.47;;;39.17;;
78728;SDS011;68252;44.944;20.218;2024-01-30T01:19:27;88.00;;;39.55;;
78728;SDS011;68252;44.944;20.218;2024-01-30T01:21:53;82.28;;;38.22;;
78728;SDS011;68252;44.944;20.218;2024-01-30T01:24:19;82.47;;;39.60;;
78728;SDS011;68252;44.944;20.218;2024-01-30T01:26:45;83.03;;;37.25;;
78728;SDS011;68252;44.944;20.218;2024-01-30T01:29:11;81.97;;;38.60;;
78728;SDS011;68252;44.944;20.218;2024-01-30T01:31:38;80.03;;;37.05;;
78728;SDS011;68252;44.944;20.218;2024-01-30T01:34:11;82.90;;;38.00;;
78728;SDS011;68252;44.944;20.218;2024-01-30T01:36:37;97.93;;;36.75;;
78728;SDS011;68252;44.944;20.218;2024-01-30T01:39:03;80.43;;;37.20;;
78728;SDS011;68252;44.944;20.218;2024-01-30T01:41:32;89.07;;;39.17;;
78728;SDS011;68252;44.944;20.218;2024-01-30T01:43:59;83.10;;;38.53;;
78728;SDS011;68252;44.944;20.218;2024-01-30T01:46:30;87.70;;;36.92;;
78728;SDS011;68252;44.944;20.218;2024-01-30T01:48:56;75.82;;;35.92;;
78728;SDS011;68252;44.944;20.218;2024-01-30T01:51:23;77.80;;;38.33;;
78728;SDS011;68252;44.944;20.218;2024-01-30T01:53:49;74.07;;;35.03;;
78728;SDS011;68252;44.944;20.218;2024-01-30T01:56:16;78.13;;;36.08;;
78728;SDS011;68252;44.944;20.218;2024-01-30T01:58:42;76.63;;;35.08;;
78728;SDS011;68252;44.944;20.218;2024-01-30T02:01:10;75.65;;;34.38;;
78728;SDS011;68252;44.944;20.218;2024-01-30T02:03:37;71.43;;;33.17;;
78728;SDS011;68252;44.944;20.218;2024-01-30T02:06:03;74.35;;;34.88;;
78728;SDS011;68252;44.944;20.218;2024-01-30T02:08:30;70.25;;;34.55;;
78728;SDS011;68252;44.944;20.218;2024-01-30T02:10:56;72.53;;;32.85;;
78728;SDS011;68252;44.944;20.218;2024-01-30T02:13:22;70.30;;;33.25;;
78728;SDS011;68252;44.944;20.218;2024-01-30T02:15:49;75.80;;;34.38;;
78728;SDS011;68252;44.944;20.218;2024-01-30T02:18:15;70.90;;;34.85;;
78728;SDS011;68252;44.944;20.218;2024-01-30T02:20:41;72.90;;;34.33;;
78728;SDS011;68252;44.944;20.218;2024-01-30T02:23:07;83.28;;;36.03;;
78728;SDS011;68252;44.944;20.218;2024-01-30T02:25:39;71.10;;;35.30;;
78728;SDS011;68252;44.944;20.218;2024-01-30T02:28:12;82.93;;;37.67;;
78728;SDS011;68252;44.944;20.218;2024-01-30T02:30:44;85.13;;;35.70;;
78728;SDS011;68252;44.944;20.218;2024-01-30T02:33:10;69.07;;;34.13;;
78728;SDS011;68252;44.944;20.218;2024-01-30T02:35:36;83.40;;;38.00;;
78728;SDS011;68252;44.944;20.218;2024-01-30T02:38:02;76.57;;;34.60;;
78728;SDS011;68252;44.944;20.218;2024-01-30T02:40:28;72.72;;;34.20;;
78728;SDS011;68252;44.944;20.218;2024-01-30T02:42:54;76.03;;;36.20;;
78728;SDS011;68252;44.944;20.218;2024-01-30T02:45:20;74.75;;;36.10;;
78728;SDS011;68252;44.944;20.218;2024-01-30T02:47:46;77.95;;;35.20;;
78728;SDS011;68252;44.944;20.218;2024-01-30T02:50:12;75.70;;;38.03;;
78728;SDS011;68252;44.944;20.218;2024-01-30T02:52:40;74.95;;;36.80;;
78728;SDS011;68252;44.944;20.218;2024-01-30T02:55:06;74.18;;;36.47;;
78728;SDS011;68252;44.944;20.218;2024-01-30T02:57:32;75.88;;;36.22;;
78728;SDS011;68252;44.944;20.218;2024-01-30T02:59:59;77.20;;;37.42;;
78728;SDS011;68252;44.944;20.218;2024-01-30T03:02:25;79.40;;;36.38;;
78728;SDS011;68252;44.944;20.218;2024-01-30T03:04:51;78.13;;;38.08;;
78728;SDS011;68252;44.944;20.218;2024-01-30T03:07:17;85.22;;;37.70;;
78728;SDS011;68252;44.944;20.218;2024-01-30T03:09:43;75.38;;;37.13;;
78728;SDS011;68252;44.944;20.218;2024-01-30T03:12:09;83.38;;;38.47;;
78728;SDS011;68252;44.944;20.218;2024-01-30T03:14:35;78.90;;;37.55;;
78728;SDS011;68252;44.944;20.218;2024-01-30T03:17:02;76.60;;;36.20;;
78728;SDS011;68252;44.944;20.218;2024-01-30T03:19:28;74.45;;;36.38;;
78728;SDS011;68252;44.944;20.218;2024-01-30T03:21:54;83.35;;;37.33;;
78728;SDS011;68252;44.944;20.218;2024-01-30T03:24:20;75.20;;;34.80;;
78728;SDS011;68252;44.944;20.218;2024-01-30T03:26:46;73.07;;;34.42;;
78728;SDS011;68252;44.944;20.218;2024-01-30T03:29:12;85.88;;;37.78;;
78728;SDS011;68252;44.944;20.218;2024-01-30T03:31:39;74.03;;;36.58;;
78728;SDS011;68252;44.944;20.218;2024-01-30T03:34:05;73.15;;;34.90;;
78728;SDS011;68252;44.944;20.218;2024-01-30T03:36:31;76.00;;;35.38;;
78728;SDS011;68252;44.944;20.218;2024-01-30T03:38:59;82.03;;;36.90;;
78728;SDS011;68252;44.944;20.218;2024-01-30T03:41:25;74.25;;;36.40;;
78728;SDS011;68252;44.944;20.218;2024-01-30T03:43:51;75.53;;;36.17;;
78728;SDS011;68252;44.944;20.218;2024-01-30T03:46:17;81.05;;;37.67;;
78728;SDS011;68252;44.944;20.218;2024-01-30T03:48:44;77.55;;;34.60;;
78728;SDS011;68252;44.944;20.218;2024-01-30T03:51:10;78.25;;;35.63;;
78728;SDS011;68252;44.944;20.218;2024-01-30T03:53:43;84.60;;;38.70;;
78728;SDS011;68252;44.944;20.218;2024-01-30T03:56:11;75.45;;;36.67;;
78728;SDS011;68252;44.944;20.218;2024-01-30T03:58:43;80.78;;;38.97;;
78728;SDS011;68252;44.944;20.218;2024-01-30T04:01:13;77.15;;;38.92;;
78728;SDS011;68252;44.944;20.218;2024-01-30T04:03:39;80.47;;;39.28;;
78728;SDS011;68252;44.944;20.218;2024-01-30T04:06:05;82.35;;;39.40;;
78728;SDS011;68252;44.944;20.218;2024-01-30T04:08:31;89.75;;;39.30;;
78728;SDS011;68252;44.944;20.218;2024-01-30T04:10:57;118.90;;;48.83;;
78728;SDS011;68252;44.944;20.218;2024-01-30T04:13:23;121.78;;;46.13;;
78728;SDS011;68252;44.944;20.218;2024-01-30T04:15:49;92.85;;;38.83;;
78728;SDS011;68252;44.944;20.218;2024-01-30T04:18:15;103.70;;;37.88;;
78728;SDS011;68252;44.944;20.218;2024-01-30T04:20:42;94.15;;;37.75;;
78728;SDS011;68252;44.944;20.218;2024-01-30T04:23:08;92.55;;;38.42;;
78728;SDS011;68252;44.944;20.218;2024-01-30T04:25:34;136.75;;;37.85;;
78728;SDS011;68252;44.944;20.218;2024-01-30T04:28:00;96.32;;;38.22;;
78728;SDS011;68252;44.944;20.218;2024-01-30T04:30:26;128.90;;;38.08;;
78728;SDS011;68252;44.944;20.218;2024-01-30T04:32:52;108.65;;;37.33;;
78728;SDS011;68252;44.944;20.218;2024-01-30T04:35:18;84.10;;;35.38;;
78728;SDS011;68252;44.944;20.218;2024-01-30T04:37:48;92.40;;;36.45;;
78728;SDS011;68252;44.944;20.218;2024-01-30T04:40:14;82.70;;;36.67;;
78728;SDS011;68252;44.944;20.218;2024-01-30T04:42:40;73.80;;;36.00;;
78728;SDS011;68252;44.944;20.218;2024-01-30T04:45:06;77.38;;;35.00;;
78728;SDS011;68252;44.944;20.218;2024-01-30T04:47:33;82.57;;;35.20;;
78728;SDS011;68252;44.944;20.218;2024-01-30T04:49:59;82.07;;;35.72;;
78728;SDS011;68252;44.944;20.218;2024-01-30T04:52:25;96.68;;;36.45;;
78728;SDS011;68252;44.944;20.218;2024-01-30T04:54:51;74.25;;;34.50;;
78728;SDS011;68252;44.944;20.218;2024-01-30T04:57:17;86.82;;;39.85;;
78728;SDS011;68252;44.944;20.218;2024-01-30T04:59:43;85.90;;;38.30;;
78728;SDS011;68252;44.944;20.218;2024-01-30T05:02:09;79.45;;;36.63;;
78728;SDS011;68252;44.944;20.218;2024-01-30T05:04:35;78.45;;;36.92;;
78728;SDS011;68252;44.944;20.218;2024-01-30T05:07:01;72.50;;;35.13;;
78728;SDS011;68252;44.944;20.218;2024-01-30T05:09:28;83.22;;;37.30;;
78728;SDS011;68252;44.944;20.218;2024-01-30T05:11:54;71.60;;;35.28;;
78728;SDS011;68252;44.944;20.218;2024-01-30T05:14:20;75.78;;;34.65;;
78728;SDS011;68252;44.944;20.218;2024-01-30T05:16:46;75.07;;;37.00;;
78728;SDS011;68252;44.944;20.218;2024-01-30T05:19:15;86.78;;;41.53;;
78728;SDS011;68252;44.944;20.218;2024-01-30T05:21:42;83.07;;;39.03;;
78728;SDS011;68252;44.944;20.218;2024-01-30T05:24:08;133.02;;;72.57;;
78728;SDS011;68252;44.944;20.218;2024-01-30T05:26:35;106.82;;;54.45;;
78728;SDS011;68252;44.944;20.218;2024-01-30T05:29:01;93.90;;;49.38;;
78728;SDS011;68252;44.944;20.218;2024-01-30T05:31:27;78.75;;;39.65;;
78728;SDS011;68252;44.944;20.218;2024-01-30T05:33:54;71.10;;;37.17;;
78728;SDS011;68252;44.944;20.218;2024-01-30T05:36:20;73.93;;;37.83;;
78728;SDS011;68252;44.944;20.218;2024-01-30T05:38:46;86.03;;;37.75;;
78728;SDS011;68252;44.944;20.218;2024-01-30T05:41:12;76.35;;;36.72;;
78728;SDS011;68252;44.944;20.218;2024-01-30T05:43:39;78.32;;;37.88;;
78728;SDS011;68252;44.944;20.218;2024-01-30T05:46:06;84.88;;;39.28;;
78728;SDS011;68252;44.944;20.218;2024-01-30T05:48:32;76.43;;;36.58;;
78728;SDS011;68252;44.944;20.218;2024-01-30T05:51:00;83.82;;;40.13;;
78728;SDS011;68252;44.944;20.218;2024-01-30T05:53:26;86.38;;;43.53;;
78728;SDS011;68252;44.944;20.218;2024-01-30T05:55:52;120.47;;;54.53;;
78728;SDS011;68252;44.944;20.218;2024-01-30T05:58:18;124.75;;;56.28;;
78728;SDS011;68252;44.944;20.218;2024-01-30T06:00:44;111.90;;;51.25;;
78728;SDS011;68252;44.944;20.218;2024-01-30T06:03:10;239.07;;;86.55;;
78728;SDS011;68252;44.944;20.218;2024-01-30T06:05:36;321.25;;;121.60;;
78728;SDS011;68252;44.944;20.218;2024-01-30T06:08:02;255.93;;;101.72;;
78728;SDS011;68252;44.944;20.218;2024-01-30T06:10:28;306.70;;;121.43;;
78728;SDS011;68252;44.944;20.218;2024-01-30T06:12:54;241.20;;;105.80;;
78728;SDS011;68252;44.944;20.218;2024-01-30T06:15:20;205.25;;;78.43;;
78728;SDS011;68252;44.944;20.218;2024-01-30T06:17:46;138.55;;;57.92;;
78728;SDS011;68252;44.944;20.218;2024-01-30T06:20:13;120.03;;;53.97;;
78728;SDS011;68252;44.944;20.218;2024-01-30T06:22:39;129.15;;;53.42;;
78728;SDS011;68252;44.944;20.218;2024-01-30T06:25:05;280.38;;;98.65;;
78728;SDS011;68252;44.944;20.218;2024-01-30T06:27:32;274.38;;;98.30;;
78728;SDS011;68252;44.944;20.218;2024-01-30T06:29:58;343.05;;;114.70;;
78728;SDS011;68252;44.944;20.218;2024-01-30T06:32:24;346.60;;;120.13;;
78728;SDS011;68252;44.944;20.218;2024-01-30T06:34:50;356.90;;;122.88;;
78728;SDS011;68252;44.944;20.218;2024-01-30T06:37:16;389.48;;;127.13;;
78728;SDS011;68252;44.944;20.218;2024-01-30T06:39:42;426.15;;;145.18;;
78728;SDS011;68252;44.944;20.218;2024-01-30T06:42:09;352.23;;;116.65;;
78728;SDS011;68252;44.944;20.218;2024-01-30T06:44:36;243.50;;;88.90;;
78728;SDS011;68252;44.944;20.218;2024-01-30T06:47:02;187.82;;;72.00;;
78728;SDS011;68252;44.944;20.218;2024-01-30T06:49:28;146.00;;;59.05;;
78728;SDS011;68252;44.944;20.218;2024-01-30T06:51:54;142.73;;;59.42;;
78728;SDS011;68252;44.944;20.218;2024-01-30T06:54:20;167.60;;;76.22;;
78728;SDS011;68252;44.944;20.218;2024-01-30T06:56:47;150.85;;;67.40;;
78728;SDS011;68252;44.944;20.218;2024-01-30T06:59:13;115.07;;;55.55;;
78728;SDS011;68252;44.944;20.218;2024-01-30T07:01:39;111.05;;;53.95;;
78728;SDS011;68252;44.944;20.218;2024-01-30T07:04:05;107.78;;;51.13;;
78728;SDS011;68252;44.944;20.218;2024-01-30T07:06:31;106.88;;;50.28;;
78728;SDS011;68252;44.944;20.218;2024-01-30T07:08:57;165.15;;;75.75;;
78728;SDS011;68252;44.944;20.218;2024-01-30T07:11:23;424.40;;;135.50;;
78728;SDS011;68252;44.944;20.218;2024-01-30T07:13:52;348.20;;;119.75;;
78728;SDS011;68252;44.944;20.218;2024-01-30T07:18:44;116.45;;;53.42;;
78728;SDS011;68252;44.944;20.218;2024-01-30T07:21:11;118.07;;;50.92;;
78728;SDS011;68252;44.944;20.218;2024-01-30T07:23:37;113.45;;;49.92;;
78728;SDS011;68252;44.944;20.218;2024-01-30T07:26:07;105.85;;;48.85;;
78728;SDS011;68252;44.944;20.218;2024-01-30T07:28:33;115.25;;;52.30;;
78728;SDS011;68252;44.944;20.218;2024-01-30T07:31:00;114.50;;;54.55;;
78728;SDS011;68252;44.944;20.218;2024-01-30T07:33:26;102.45;;;48.78;;
78728;SDS011;68252;44.944;20.218;2024-01-30T07:35:53;85.18;;;42.65;;
78728;SDS011;68252;44.944;20.218;2024-01-30T07:38:19;81.55;;;42.78;;
78728;SDS011;68252;44.944;20.218;2024-01-30T07:40:45;83.45;;;40.40;;
78728;SDS011;68252;44.944;20.218;2024-01-30T07:43:12;85.80;;;41.55;;
78728;SDS011;68252;44.944;20.218;2024-01-30T07:45:38;83.45;;;41.03;;
78728;SDS011;68252;44.944;20.218;2024-01-30T07:48:05;85.25;;;38.33;;
78728;SDS011;68252;44.944;20.218;2024-01-30T07:50:31;79.70;;;39.55;;
78728;SDS011;68252;44.944;20.218;2024-01-30T07:52:58;75.38;;;36.35;;
78728;SDS011;68252;44.944;20.218;2024-01-30T07:55:25;80.07;;;38.80;;
78728;SDS011;68252;44.944;20.218;2024-01-30T07:57:53;71.20;;;35.45;;
78728;SDS011;68252;44.944;20.218;2024-01-30T08:00:20;73.53;;;36.30;;
78728;SDS011;68252;44.944;20.218;2024-01-30T08:02:46;89.28;;;43.20;;
78728;SDS011;68252;44.944;20.218;2024-01-30T08:05:20;79.22;;;37.08;;
78728;SDS011;68252;44.944;20.218;2024-01-30T08:07:48;70.63;;;35.55;;
78728;SDS011;68252;44.944;20.218;2024-01-30T08:10:14;67.03;;;34.45;;
78728;SDS011;68252;44.944;20.218;2024-01-30T08:12:40;70.88;;;35.20;;
78728;SDS011;68252;44.944;20.218;2024-01-30T08:15:07;61.10;;;31.05;;
78728;SDS011;68252;44.944;20.218;2024-01-30T08:17:33;75.13;;;36.83;;
78728;SDS011;68252;44.944;20.218;2024-01-30T08:19:59;75.55;;;36.95;;
78728;SDS011;68252;44.944;20.218;2024-01-30T08:22:25;73.05;;;35.78;;
78728;SDS011;68252;44.944;20.218;2024-01-30T08:24:52;75.38;;;37.50;;
78728;SDS011;68252;44.944;20.218;2024-01-30T08:27:18;74.72;;;35.65;;
78728;SDS011;68252;44.944;20.218;2024-01-30T08:29:44;70.38;;;34.10;;
78728;SDS011;68252;44.944;20.218;2024-01-30T08:32:10;68.03;;;33.65;;
78728;SDS011;68252;44.944;20.218;2024-01-30T08:34:36;66.05;;;33.42;;
78728;SDS011;68252;44.944;20.218;2024-01-30T08:37:02;72.72;;;32.70;;
78728;SDS011;68252;44.944;20.218;2024-01-30T08:39:28;64.93;;;33.05;;
78728;SDS011;68252;44.944;20.218;2024-01-30T08:41:55;65.43;;;32.65;;
78728;SDS011;68252;44.944;20.218;2024-01-30T08:44:21;73.25;;;33.85;;
78728;SDS011;68252;44.944;20.218;2024-01-30T08:46:47;66.13;;;32.88;;
78728;SDS011;68252;44.944;20.218;2024-01-30T08:49:16;65.20;;;33.45;;
78728;SDS011;68252;44.944;20.218;2024-01-30T08:51:42;59.78;;;30.08;;
78728;SDS011;68252;44.944;20.218;2024-01-30T08:54:08;60.88;;;30.95;;
78728;SDS011;68252;44.944;20.218;2024-01-30T08:56:34;65.40;;;31.65;;
78728;SDS011;68252;44.944;20.218;2024-01-30T08:59:00;69.55;;;32.13;;
78728;SDS011;68252;44.944;20.218;2024-01-30T09:01:26;66.85;;;31.77;;
78728;SDS011;68252;44.944;20.218;2024-01-30T09:03:52;60.20;;;28.83;;
78728;SDS011;68252;44.944;20.218;2024-01-30T09:06:19;61.45;;;28.80;;
78728;SDS011;68252;44.944;20.218;2024-01-30T09:08:51;58.55;;;28.83;;
78728;SDS011;68252;44.944;20.218;2024-01-30T09:11:17;59.78;;;29.17;;
78728;SDS011;68252;44.944;20.218;2024-01-30T09:13:43;47.40;;;24.80;;
78728;SDS011;68252;44.944;20.218;2024-01-30T09:16:09;55.83;;;23.58;;
78728;SDS011;68252;44.944;20.218;2024-01-30T09:18:35;68.43;;;26.77;;
78728;SDS011;68252;44.944;20.218;2024-01-30T09:21:01;60.60;;;24.55;;
78728;SDS011;68252;44.944;20.218;2024-01-30T09:23:27;46.70;;;22.70;;
78728;SDS011;68252;44.944;20.218;2024-01-30T09:25:53;52.95;;;24.95;;
78728;SDS011;68252;44.944;20.218;2024-01-30T09:28:20;59.60;;;22.98;;
78728;SDS011;68252;44.944;20.218;2024-01-30T09:30:46;36.03;;;16.70;;
78728;SDS011;68252;44.944;20.218;2024-01-30T09:33:12;26.38;;;10.13;;
78728;SDS011;68252;44.944;20.218;2024-01-30T09:35:38;26.33;;;12.15;;
78728;SDS011;68252;44.944;20.218;2024-01-30T09:38:04;28.60;;;10.88;;
78728;SDS011;68252;44.944;20.218;2024-01-30T09:40:30;31.25;;;13.68;;
78728;SDS011;68252;44.944;20.218;2024-01-30T09:42:56;34.20;;;11.32;;
78728;SDS011;68252;44.944;20.218;2024-01-30T09:45:27;46.10;;;11.65;;
78728;SDS011;68252;44.944;20.218;2024-01-30T09:47:53;31.35;;;10.23;;
78728;SDS011;68252;44.944;20.218;2024-01-30T09:50:19;30.13;;;9.40;;
78728;SDS011;68252;44.944;20.218;2024-01-30T09:52:46;20.63;;;9.32;;
78728;SDS011;68252;44.944;20.218;2024-01-30T09:55:12;39.05;;;9.70;;
78728;SDS011;68252;44.944;20.218;2024-01-30T09:57:38;31.42;;;11.48;;
78728;SDS011;68252;44.944;20.218;2024-01-30T10:00:05;42.35;;;11.18;;
78728;SDS011;68252;44.944;20.218;2024-01-30T10:02:33;30.38;;;11.18;;
78728;SDS011;68252;44.944;20.218;2024-01-30T10:05:00;42.00;;;11.15;;
78728;SDS011;68252;44.944;20.218;2024-01-30T10:07:26;25.90;;;10.77;;
78728;SDS011;68252;44.944;20.218;2024-01-30T10:09:52;57.78;;;15.82;;
78728;SDS011;68252;44.944;20.218;2024-01-30T10:12:20;80.65;;;12.93;;
78728;SDS011;68252;44.944;20.218;2024-01-30T10:14:46;46.67;;;12.75;;
78728;SDS011;68252;44.944;20.218;2024-01-30T10:17:12;27.73;;;9.63;;
78728;SDS011;68252;44.944;20.218;2024-01-30T10:19:39;30.48;;;10.00;;
78728;SDS011;68252;44.944;20.218;2024-01-30T10:22:05;36.28;;;12.38;;
78728;SDS011;68252;44.944;20.218;2024-01-30T10:24:33;26.98;;;10.85;;
78728;SDS011;68252;44.944;20.218;2024-01-30T10:26:59;32.30;;;11.13;;
78728;SDS011;68252;44.944;20.218;2024-01-30T10:29:26;47.75;;;13.52;;
78728;SDS011;68252;44.944;20.218;2024-01-30T10:34:25;34.65;;;11.45;;
78728;SDS011;68252;44.944;20.218;2024-01-30T10:36:53;31.08;;;11.57;;
78728;SDS011;68252;44.944;20.218;2024-01-30T10:39:22;64.32;;;11.68;;
78728;SDS011;68252;44.944;20.218;2024-01-30T10:41:48;40.03;;;10.52;;
78728;SDS011;68252;44.944;20.218;2024-01-30T10:44:17;35.17;;;9.80;;
78728;SDS011;68252;44.944;20.218;2024-01-30T10:46:43;68.13;;;11.70;;
78728;SDS011;68252;44.944;20.218;2024-01-30T10:49:11;47.35;;;10.63;;
78728;SDS011;68252;44.944;20.218;2024-01-30T10:51:38;23.40;;;10.70;;
78728;SDS011;68252;44.944;20.218;2024-01-30T10:54:05;22.23;;;8.77;;
78728;SDS011;68252;44.944;20.218;2024-01-30T10:56:31;22.50;;;9.98;;
78728;SDS011;68252;44.944;20.218;2024-01-30T10:58:58;21.20;;;9.80;;
78728;SDS011;68252;44.944;20.218;2024-01-30T11:01:24;35.50;;;8.73;;
78728;SDS011;68252;44.944;20.218;2024-01-30T11:03:51;42.65;;;9.68;;
78728;SDS011;68252;44.944;20.218;2024-01-30T11:06:19;37.38;;;8.00;;
78728;SDS011;68252;44.944;20.218;2024-01-30T11:09:03;18.08;;;7.43;;
78728;SDS011;68252;44.944;20.218;2024-01-30T11:11:50;14.63;;;6.68;;
78728;SDS011;68252;44.944;20.218;2024-01-30T11:14:16;23.13;;;7.75;;
78728;SDS011;68252;44.944;20.218;2024-01-30T11:16:42;22.23;;;7.45;;
78728;SDS011;68252;44.944;20.218;2024-01-30T11:19:11;37.00;;;7.10;;
78728;SDS011;68252;44.944;20.218;2024-01-30T11:21:43;25.95;;;9.30;;
78728;SDS011;68252;44.944;20.218;2024-01-30T11:24:09;34.88;;;7.65;;
78728;SDS011;68252;44.944;20.218;2024-01-30T11:26:36;18.08;;;5.80;;
78728;SDS011;68252;44.944;20.218;2024-01-30T11:29:07;27.75;;;6.97;;
78728;SDS011;68252;44.944;20.218;2024-01-30T11:31:34;23.45;;;7.53;;
78728;SDS011;68252;44.944;20.218;2024-01-30T11:34:00;47.00;;;9.70;;
78728;SDS011;68252;44.944;20.218;2024-01-30T11:36:27;56.90;;;9.65;;
78728;SDS011;68252;44.944;20.218;2024-01-30T11:38:54;36.55;;;8.02;;
78728;SDS011;68252;44.944;20.218;2024-01-30T11:41:20;38.28;;;9.55;;
78728;SDS011;68252;44.944;20.218;2024-01-30T11:43:52;19.45;;;7.55;;
78728;SDS011;68252;44.944;20.218;2024-01-30T11:46:19;18.80;;;8.45;;
78728;SDS011;68252;44.944;20.218;2024-01-30T11:48:45;33.08;;;7.80;;
78728;SDS011;68252;44.944;20.218;2024-01-30T11:51:14;22.75;;;6.68;;
78728;SDS011;68252;44.944;20.218;2024-01-30T11:53:43;26.60;;;7.03;;
78728;SDS011;68252;44.944;20.218;2024-01-30T11:56:09;31.80;;;8.15;;
78728;SDS011;68252;44.944;20.218;2024-01-30T11:58:38;32.08;;;6.95;;
78728;SDS011;68252;44.944;20.218;2024-01-30T12:01:08;32.20;;;7.35;;
78728;SDS011;68252;44.944;20.218;2024-01-30T12:03:34;30.85;;;8.18;;
78728;SDS011;68252;44.944;20.218;2024-01-30T12:06:00;21.55;;;7.45;;
78728;SDS011;68252;44.944;20.218;2024-01-30T12:08:28;31.90;;;7.75;;
78728;SDS011;68252;44.944;20.218;2024-01-30T12:10:55;28.10;;;7.97;;
78728;SDS011;68252;44.944;20.218;2024-01-30T12:13:22;35.00;;;7.78;;
78728;SDS011;68252;44.944;20.218;2024-01-30T12:15:48;31.38;;;6.93;;
78728;SDS011;68252;44.944;20.218;2024-01-30T12:18:18;28.55;;;6.93;;
78728;SDS011;68252;44.944;20.218;2024-01-30T12:20:45;45.10;;;7.00;;
78728;SDS011;68252;44.944;20.218;2024-01-30T12:23:13;48.17;;;7.78;;
78728;SDS011;68252;44.944;20.218;2024-01-30T12:25:40;30.52;;;6.15;;
78728;SDS011;68252;44.944;20.218;2024-01-30T12:28:06;39.38;;;7.80;;
78728;SDS011;68252;44.944;20.218;2024-01-30T12:30:32;47.92;;;7.82;;
78728;SDS011;68252;44.944;20.218;2024-01-30T12:33:00;24.90;;;6.72;;
78728;SDS011;68252;44.944;20.218;2024-01-30T12:35:26;54.47;;;7.68;;
78728;SDS011;68252;44.944;20.218;2024-01-30T12:37:52;38.47;;;6.90;;
78728;SDS011;68252;44.944;20.218;2024-01-30T12:40:19;27.80;;;6.65;;
78728;SDS011;68252;44.944;20.218;2024-01-30T12:42:48;47.35;;;7.38;;
78728;SDS011;68252;44.944;20.218;2024-01-30T12:45:14;28.85;;;6.43;;
78728;SDS011;68252;44.944;20.218;2024-01-30T12:47:40;42.50;;;6.80;;
78728;SDS011;68252;44.944;20.218;2024-01-30T12:50:06;31.48;;;6.75;;
78728;SDS011;68252;44.944;20.218;2024-01-30T12:52:33;44.88;;;6.47;;
78728;SDS011;68252;44.944;20.218;2024-01-30T12:55:01;19.73;;;6.82;;
78728;SDS011;68252;44.944;20.218;2024-01-30T12:57:29;19.20;;;5.72;;
78728;SDS011;68252;44.944;20.218;2024-01-30T12:59:55;13.05;;;5.63;;
78728;SDS011;68252;44.944;20.218;2024-01-30T13:02:21;24.23;;;5.72;;
78728;SDS011;68252;44.944;20.218;2024-01-30T13:04:48;12.65;;;5.30;;
78728;SDS011;68252;44.944;20.218;2024-01-30T13:07:14;34.90;;;7.68;;
78728;SDS011;68252;44.944;20.218;2024-01-30T13:09:40;19.50;;;6.43;;
78728;SDS011;68252;44.944;20.218;2024-01-30T13:12:06;116.55;;;12.57;;
78728;SDS011;68252;44.944;20.218;2024-01-30T13:14:33;19.05;;;6.63;;
78728;SDS011;68252;44.944;20.218;2024-01-30T13:16:59;40.22;;;7.90;;
78728;SDS011;68252;44.944;20.218;2024-01-30T13:19:25;37.17;;;7.20;;
78728;SDS011;68252;44.944;20.218;2024-01-30T13:21:52;15.95;;;6.82;;
78728;SDS011;68252;44.944;20.218;2024-01-30T13:24:18;38.45;;;7.50;;
78728;SDS011;68252;44.944;20.218;2024-01-30T13:26:46;43.28;;;7.63;;
78728;SDS011;68252;44.944;20.218;2024-01-30T13:29:13;39.85;;;7.47;;
78728;SDS011;68252;44.944;20.218;2024-01-30T13:31:39;38.30;;;7.63;;
78728;SDS011;68252;44.944;20.218;2024-01-30T13:34:06;23.85;;;8.25;;
78728;SDS011;68252;44.944;20.218;2024-01-30T13:36:32;29.13;;;7.85;;
78728;SDS011;68252;44.944;20.218;2024-01-30T13:38:58;41.95;;;7.38;;
78728;SDS011;68252;44.944;20.218;2024-01-30T13:41:24;45.35;;;9.35;;
78728;SDS011;68252;44.944;20.218;2024-01-30T13:43:50;27.42;;;8.02;;
78728;SDS011;68252;44.944;20.218;2024-01-30T13:46:16;39.65;;;9.23;;
78728;SDS011;68252;44.944;20.218;2024-01-30T13:48:42;51.25;;;10.35;;
78728;SDS011;68252;44.944;20.218;2024-01-30T13:51:08;43.15;;;10.07;;
78728;SDS011;68252;44.944;20.218;2024-01-30T13:53:36;29.95;;;9.43;;
78728;SDS011;68252;44.944;20.218;2024-01-30T13:56:02;19.42;;;8.50;;
78728;SDS011;68252;44.944;20.218;2024-01-30T13:58:28;16.42;;;8.65;;
78728;SDS011;68252;44.944;20.218;2024-01-30T14:00:54;24.20;;;9.10;;
78728;SDS011;68252;44.944;20.218;2024-01-30T14:03:20;28.30;;;8.90;;
78728;SDS011;68252;44.944;20.218;2024-01-30T14:05:46;33.75;;;9.77;;
78728;SDS011;68252;44.944;20.218;2024-01-30T14:08:12;35.15;;;9.75;;
78728;SDS011;68252;44.944;20.218;2024-01-30T14:10:38;33.70;;;9.77;;